sensor_id;sensor_type;location;lat;lon;timestamp;temperature;humidity
13600;DHT22;6871;51.34740610;4.31323160;2022-07-25T00:00:09;26.80;69.70
13600;DHT22;6871;51.34740610;4.31323160;2022-07-25T00:02:39;26.80;69.80
13600;DHT22;6871;51.34740610;4.31323160;2022-07-25T00:05:08;26.80;70.70
13600;DHT22;6871;51.34740610;4.31323160;2022-07-25T00:07:37;26.80;70.00
13600;DHT22;6871;51.34740610;4.31323160;2022-07-25T00:10:08;26.80;70.00
13600;DHT22;6871;51.34740610;4.31323160;2022-07-25T00:12:37;26.80;69.80
13600;DHT22;6871;51.34740610;4.31323160;2022-07-25T00:15:08;26.80;69.80
13600;DHT22;6871;51.34740610;4.31323160;2022-07-25T00:17:37;26.80;69.80
13600;DHT22;6871;51.34740610;4.31323160;2022-07-25T00:20:09;26.80;69.80
13600;DHT22;6871;51.34740610;4.31323160;2022-07-25T00:22:38;26.80;69.90
13600;DHT22;6871;51.34740610;4.31323160;2022-07-25T00:25:08;26.80;70.00
13600;DHT22;6871;51.34740610;4.31323160;2022-07-25T00:27:37;26.80;70.00
13600;DHT22;6871;51.34740610;4.31323160;2022-07-25T00:30:08;26.80;69.80
13600;DHT22;6871;51.34740610;4.31323160;2022-07-25T00:32:37;26.80;69.90
13600;DHT22;6871;51.34740610;4.31323160;2022-07-25T00:35:07;26.80;69.90
13600;DHT22;6871;51.34740610;4.31323160;2022-07-25T00:37:36;26.80;69.80
13600;DHT22;6871;51.34740610;4.31323160;2022-07-25T00:40:08;26.80;70.10
13600;DHT22;6871;51.34740610;4.31323160;2022-07-25T00:42:37;26.80;69.90
13600;DHT22;6871;51.34740610;4.31323160;2022-07-25T00:45:08;26.80;69.80
13600;DHT22;6871;51.34740610;4.31323160;2022-07-25T00:47:37;26.80;69.90
13600;DHT22;6871;51.34740610;4.31323160;2022-07-25T00:50:07;26.80;69.90
13600;DHT22;6871;51.34740610;4.31323160;2022-07-25T00:52:36;26.80;70.00
13600;DHT22;6871;51.34740610;4.31323160;2022-07-25T00:55:07;26.70;69.90
13600;DHT22;6871;51.34740610;4.31323160;2022-07-25T00:57:36;26.70;69.90
13600;DHT22;6871;51.34740610;4.31323160;2022-07-25T01:00:10;26.70;69.80
13600;DHT22;6871;51.34740610;4.31323160;2022-07-25T01:02:39;26.70;69.80
13600;DHT22;6871;51.34740610;4.31323160;2022-07-25T01:05:09;26.70;69.80
13600;DHT22;6871;51.34740610;4.31323160;2022-07-25T01:07:39;26.70;69.90
13600;DHT22;6871;51.34740610;4.31323160;2022-07-25T01:10:09;26.70;69.90
13600;DHT22;6871;51.34740610;4.31323160;2022-07-25T01:12:47;26.70;69.90
13600;DHT22;6871;51.34740610;4.31323160;2022-07-25T01:15:17;26.70;69.90
13600;DHT22;6871;51.34740610;4.31323160;2022-07-25T01:17:47;26.70;70.00
13600;DHT22;6871;51.34740610;4.31323160;2022-07-25T01:20:16;26.70;69.90
13600;DHT22;6871;51.34740610;4.31323160;2022-07-25T01:22:46;26.70;70.00
13600;DHT22;6871;51.34740610;4.31323160;2022-07-25T01:25:15;26.70;70.00
13600;DHT22;6871;51.34740610;4.31323160;2022-07-25T01:27:47;26.60;70.00
13600;DHT22;6871;51.34740610;4.31323160;2022-07-25T01:30:16;26.70;70.00
13600;DHT22;6871;51.34740610;4.31323160;2022-07-25T01:32:46;26.70;70.00
13600;DHT22;6871;51.34740610;4.31323160;2022-07-25T01:35:15;26.70;70.00
13600;DHT22;6871;51.34740610;4.31323160;2022-07-25T01:37:44;26.70;70.00
13600;DHT22;6871;51.34740610;4.31323160;2022-07-25T01:40:14;26.60;70.00
13600;DHT22;6871;51.34740610;4.31323160;2022-07-25T01:42:43;26.60;69.90
13600;DHT22;6871;51.34740610;4.31323160;2022-07-25T01:45:12;26.60;70.70
13600;DHT22;6871;51.34740610;4.31323160;2022-07-25T01:47:41;26.60;70.00
13600;DHT22;6871;51.34740610;4.31323160;2022-07-25T01:50:11;26.60;70.10
13600;DHT22;6871;51.34740610;4.31323160;2022-07-25T01:52:40;26.60;70.00
13600;DHT22;6871;51.34740610;4.31323160;2022-07-25T01:55:10;26.60;70.00
13600;DHT22;6871;51.34740610;4.31323160;2022-07-25T01:57:39;26.60;69.80
13600;DHT22;6871;51.34740610;4.31323160;2022-07-25T02:00:12;26.60;70.00
13600;DHT22;6871;51.34740610;4.31323160;2022-07-25T02:02:41;26.60;70.00
13600;DHT22;6871;51.34740610;4.31323160;2022-07-25T02:05:12;26.60;70.10
13600;DHT22;6871;51.34740610;4.31323160;2022-07-25T02:07:41;26.60;70.10
13600;DHT22;6871;51.34740610;4.31323160;2022-07-25T02:10:11;26.60;70.10
13600;DHT22;6871;51.34740610;4.31323160;2022-07-25T02:12:40;26.60;70.00
13600;DHT22;6871;51.34740610;4.31323160;2022-07-25T02:15:10;26.60;70.00
13600;DHT22;6871;51.34740610;4.31323160;2022-07-25T02:17:39;26.60;70.00
13600;DHT22;6871;51.34740610;4.31323160;2022-07-25T02:20:10;26.60;70.10
13600;DHT22;6871;51.34740610;4.31323160;2022-07-25T02:22:39;26.60;71.00
13600;DHT22;6871;51.34740610;4.31323160;2022-07-25T02:25:09;26.50;70.10
13600;DHT22;6871;51.34740610;4.31323160;2022-07-25T02:27:38;26.50;70.00
13600;DHT22;6871;51.34740610;4.31323160;2022-07-25T02:30:08;26.50;70.00
13600;DHT22;6871;51.34740610;4.31323160;2022-07-25T02:32:37;26.50;70.00
13600;DHT22;6871;51.34740610;4.31323160;2022-07-25T02:35:08;26.50;70.10
13600;DHT22;6871;51.34740610;4.31323160;2022-07-25T02:37:37;26.50;70.10
13600;DHT22;6871;51.34740610;4.31323160;2022-07-25T02:40:09;26.50;70.10
13600;DHT22;6871;51.34740610;4.31323160;2022-07-25T02:42:38;26.50;70.00
13600;DHT22;6871;51.34740610;4.31323160;2022-07-25T02:45:09;26.50;70.00
13600;DHT22;6871;51.34740610;4.31323160;2022-07-25T02:47:38;26.50;70.00
13600;DHT22;6871;51.34740610;4.31323160;2022-07-25T02:50:08;26.50;70.00
13600;DHT22;6871;51.34740610;4.31323160;2022-07-25T02:52:37;26.50;70.00
13600;DHT22;6871;51.34740610;4.31323160;2022-07-25T02:55:08;26.50;70.00
13600;DHT22;6871;51.34740610;4.31323160;2022-07-25T02:57:37;26.40;69.80
13600;DHT22;6871;51.34740610;4.31323160;2022-07-25T03:00:08;26.50;70.00
13600;DHT22;6871;51.34740610;4.31323160;2022-07-25T03:02:37;26.40;70.00
13600;DHT22;6871;51.34740610;4.31323160;2022-07-25T03:05:09;26.50;70.10
13600;DHT22;6871;51.34740610;4.31323160;2022-07-25T03:07:38;26.40;69.90
13600;DHT22;6871;51.34740610;4.31323160;2022-07-25T03:10:10;26.40;69.80
13600;DHT22;6871;51.34740610;4.31323160;2022-07-25T03:12:41;26.40;69.80
13600;DHT22;6871;51.34740610;4.31323160;2022-07-25T03:15:11;26.40;69.90
13600;DHT22;6871;51.34740610;4.31323160;2022-07-25T03:17:40;26.40;70.00
13600;DHT22;6871;51.34740610;4.31323160;2022-07-25T03:20:10;26.40;70.00
13600;DHT22;6871;51.34740610;4.31323160;2022-07-25T03:22:39;26.40;69.90
13600;DHT22;6871;51.34740610;4.31323160;2022-07-25T03:25:09;26.40;69.90
13600;DHT22;6871;51.34740610;4.31323160;2022-07-25T03:27:38;26.40;69.90
13600;DHT22;6871;51.34740610;4.31323160;2022-07-25T03:30:09;26.40;69.80
13600;DHT22;6871;51.34740610;4.31323160;2022-07-25T03:32:39;26.40;69.80
13600;DHT22;6871;51.34740610;4.31323160;2022-07-25T03:35:09;26.40;69.80
13600;DHT22;6871;51.34740610;4.31323160;2022-07-25T03:37:38;26.30;69.60
13600;DHT22;6871;51.34740610;4.31323160;2022-07-25T03:40:08;26.30;69.60
13600;DHT22;6871;51.34740610;4.31323160;2022-07-25T03:42:37;26.30;69.60
13600;DHT22;6871;51.34740610;4.31323160;2022-07-25T03:45:08;26.30;69.50
13600;DHT22;6871;51.34740610;4.31323160;2022-07-25T03:47:37;26.30;69.40
13600;DHT22;6871;51.34740610;4.31323160;2022-07-25T03:50:08;26.30;69.40
13600;DHT22;6871;51.34740610;4.31323160;2022-07-25T03:52:37;26.30;69.40
13600;DHT22;6871;51.34740610;4.31323160;2022-07-25T03:55:07;26.30;69.30
13600;DHT22;6871;51.34740610;4.31323160;2022-07-25T03:57:37;26.30;69.30
13600;DHT22;6871;51.34740610;4.31323160;2022-07-25T04:00:10;26.30;69.30
13600;DHT22;6871;51.34740610;4.31323160;2022-07-25T04:02:39;26.30;69.20
13600;DHT22;6871;51.34740610;4.31323160;2022-07-25T04:05:09;26.30;69.20
13600;DHT22;6871;51.34740610;4.31323160;2022-07-25T04:07:38;26.30;69.30
13600;DHT22;6871;51.34740610;4.31323160;2022-07-25T04:10:09;26.30;69.20
13600;DHT22;6871;51.34740610;4.31323160;2022-07-25T04:12:38;26.30;69.30
13600;DHT22;6871;51.34740610;4.31323160;2022-07-25T04:15:08;26.30;69.20
13600;DHT22;6871;51.34740610;4.31323160;2022-07-25T04:17:38;26.30;69.20
13600;DHT22;6871;51.34740610;4.31323160;2022-07-25T04:20:09;26.30;69.20
13600;DHT22;6871;51.34740610;4.31323160;2022-07-25T04:22:38;26.30;69.10
13600;DHT22;6871;51.34740610;4.31323160;2022-07-25T04:25:08;26.30;69.00
13600;DHT22;6871;51.34740610;4.31323160;2022-07-25T04:27:37;26.30;69.00
13600;DHT22;6871;51.34740610;4.31323160;2022-07-25T04:30:09;26.30;69.00
13600;DHT22;6871;51.34740610;4.31323160;2022-07-25T04:32:38;26.30;69.00
13600;DHT22;6871;51.34740610;4.31323160;2022-07-25T04:35:09;26.20;68.80
13600;DHT22;6871;51.34740610;4.31323160;2022-07-25T04:37:38;26.20;68.80
13600;DHT22;6871;51.34740610;4.31323160;2022-07-25T04:40:10;26.20;68.80
13600;DHT22;6871;51.34740610;4.31323160;2022-07-25T04:42:39;26.20;68.80
13600;DHT22;6871;51.34740610;4.31323160;2022-07-25T04:45:10;26.20;68.70
13600;DHT22;6871;51.34740610;4.31323160;2022-07-25T04:47:39;26.20;68.70
13600;DHT22;6871;51.34740610;4.31323160;2022-07-25T04:50:09;26.20;68.70
13600;DHT22;6871;51.34740610;4.31323160;2022-07-25T04:52:38;26.20;68.60
13600;DHT22;6871;51.34740610;4.31323160;2022-07-25T04:55:08;26.20;68.60
13600;DHT22;6871;51.34740610;4.31323160;2022-07-25T04:57:37;26.20;68.60
13600;DHT22;6871;51.34740610;4.31323160;2022-07-25T05:00:09;26.20;68.60
13600;DHT22;6871;51.34740610;4.31323160;2022-07-25T05:02:38;26.20;68.50
13600;DHT22;6871;51.34740610;4.31323160;2022-07-25T05:05:09;26.20;68.40
13600;DHT22;6871;51.34740610;4.31323160;2022-07-25T05:07:38;26.10;68.40
13600;DHT22;6871;51.34740610;4.31323160;2022-07-25T05:10:08;26.10;68.40
13600;DHT22;6871;51.34740610;4.31323160;2022-07-25T05:12:37;26.20;68.50
13600;DHT22;6871;51.34740610;4.31323160;2022-07-25T05:15:08;26.20;68.50
13600;DHT22;6871;51.34740610;4.31323160;2022-07-25T05:17:38;26.10;68.50
13600;DHT22;6871;51.34740610;4.31323160;2022-07-25T05:20:10;26.20;68.50
13600;DHT22;6871;51.34740610;4.31323160;2022-07-25T05:22:39;26.10;68.40
13600;DHT22;6871;51.34740610;4.31323160;2022-07-25T05:25:10;26.10;68.40
13600;DHT22;6871;51.34740610;4.31323160;2022-07-25T05:27:40;26.10;68.50
13600;DHT22;6871;51.34740610;4.31323160;2022-07-25T05:30:10;26.20;68.50
13600;DHT22;6871;51.34740610;4.31323160;2022-07-25T05:32:40;26.10;68.40
13600;DHT22;6871;51.34740610;4.31323160;2022-07-25T05:35:10;26.10;69.50
13600;DHT22;6871;51.34740610;4.31323160;2022-07-25T05:37:39;26.10;68.40
13600;DHT22;6871;51.34740610;4.31323160;2022-07-25T05:40:09;26.10;68.30
13600;DHT22;6871;51.34740610;4.31323160;2022-07-25T05:42:38;26.10;68.50
13600;DHT22;6871;51.34740610;4.31323160;2022-07-25T05:45:08;26.10;68.40
13600;DHT22;6871;51.34740610;4.31323160;2022-07-25T05:47:37;26.10;68.50
13600;DHT22;6871;51.34740610;4.31323160;2022-07-25T05:50:08;26.10;68.40
13600;DHT22;6871;51.34740610;4.31323160;2022-07-25T05:52:37;26.10;68.40
13600;DHT22;6871;51.34740610;4.31323160;2022-07-25T05:55:07;26.10;68.40
13600;DHT22;6871;51.34740610;4.31323160;2022-07-25T05:57:36;26.10;68.40
13600;DHT22;6871;51.34740610;4.31323160;2022-07-25T06:00:08;26.10;68.40
13600;DHT22;6871;51.34740610;4.31323160;2022-07-25T06:02:37;26.10;68.50
13600;DHT22;6871;51.34740610;4.31323160;2022-07-25T06:05:07;26.10;68.40
13600;DHT22;6871;51.34740610;4.31323160;2022-07-25T06:07:36;26.10;68.40
13600;DHT22;6871;51.34740610;4.31323160;2022-07-25T06:10:06;26.10;68.30
13600;DHT22;6871;51.34740610;4.31323160;2022-07-25T06:12:35;26.10;68.50
13600;DHT22;6871;51.34740610;4.31323160;2022-07-25T06:15:06;26.10;68.50
13600;DHT22;6871;51.34740610;4.31323160;2022-07-25T06:17:36;26.10;68.50
13600;DHT22;6871;51.34740610;4.31323160;2022-07-25T06:20:06;26.10;69.40
13600;DHT22;6871;51.34740610;4.31323160;2022-07-25T06:22:35;26.10;68.40
13600;DHT22;6871;51.34740610;4.31323160;2022-07-25T06:25:05;26.10;68.40
13600;DHT22;6871;51.34740610;4.31323160;2022-07-25T06:27:35;26.10;68.50
13600;DHT22;6871;51.34740610;4.31323160;2022-07-25T06:30:07;26.10;68.60
13600;DHT22;6871;51.34740610;4.31323160;2022-07-25T06:32:36;26.10;68.60
13600;DHT22;6871;51.34740610;4.31323160;2022-07-25T06:35:07;26.10;68.70
13600;DHT22;6871;51.34740610;4.31323160;2022-07-25T06:37:37;26.00;68.60
13600;DHT22;6871;51.34740610;4.31323160;2022-07-25T06:40:09;26.00;68.40
13600;DHT22;6871;51.34740610;4.31323160;2022-07-25T06:42:39;26.00;68.60
13600;DHT22;6871;51.34740610;4.31323160;2022-07-25T06:45:11;26.10;68.70
13600;DHT22;6871;51.34740610;4.31323160;2022-07-25T06:47:41;26.00;68.80
13600;DHT22;6871;51.34740610;4.31323160;2022-07-25T06:50:12;26.00;69.00
13600;DHT22;6871;51.34740610;4.31323160;2022-07-25T06:52:42;26.00;69.00
13600;DHT22;6871;51.34740610;4.31323160;2022-07-25T06:55:12;26.00;68.70
13600;DHT22;6871;51.34740610;4.31323160;2022-07-25T06:57:42;26.10;68.60
13600;DHT22;6871;51.34740610;4.31323160;2022-07-25T07:00:13;26.10;68.80
13600;DHT22;6871;51.34740610;4.31323160;2022-07-25T07:02:54;26.00;68.70
13600;DHT22;6871;51.34740610;4.31323160;2022-07-25T07:05:24;26.10;68.60
13600;DHT22;6871;51.34740610;4.31323160;2022-07-25T07:07:54;26.10;68.90
13600;DHT22;6871;51.34740610;4.31323160;2022-07-25T07:10:24;26.10;68.60
13600;DHT22;6871;51.34740610;4.31323160;2022-07-25T07:13:04;26.00;68.60
13600;DHT22;6871;51.34740610;4.31323160;2022-07-25T07:15:33;26.10;68.90
13600;DHT22;6871;51.34740610;4.31323160;2022-07-25T07:18:02;26.10;69.00
13600;DHT22;6871;51.34740610;4.31323160;2022-07-25T07:20:32;26.10;69.20
13600;DHT22;6871;51.34740610;4.31323160;2022-07-25T07:23:01;26.10;69.00
13600;DHT22;6871;51.34740610;4.31323160;2022-07-25T07:25:31;26.10;68.70
13600;DHT22;6871;51.34740610;4.31323160;2022-07-25T07:28:01;26.10;68.70
13600;DHT22;6871;51.34740610;4.31323160;2022-07-25T07:30:30;26.10;68.80
13600;DHT22;6871;51.34740610;4.31323160;2022-07-25T07:33:00;26.10;68.80
13600;DHT22;6871;51.34740610;4.31323160;2022-07-25T07:35:29;26.10;69.20
13600;DHT22;6871;51.34740610;4.31323160;2022-07-25T07:37:58;26.10;69.00
13600;DHT22;6871;51.34740610;4.31323160;2022-07-25T07:40:27;26.10;68.90
13600;DHT22;6871;51.34740610;4.31323160;2022-07-25T07:42:56;26.10;68.90
13600;DHT22;6871;51.34740610;4.31323160;2022-07-25T07:45:27;26.10;69.10
13600;DHT22;6871;51.34740610;4.31323160;2022-07-25T07:47:56;26.10;69.00
13600;DHT22;6871;51.34740610;4.31323160;2022-07-25T07:50:26;26.10;69.10
13600;DHT22;6871;51.34740610;4.31323160;2022-07-25T07:52:56;26.10;69.00
13600;DHT22;6871;51.34740610;4.31323160;2022-07-25T07:55:25;26.10;69.00
13600;DHT22;6871;51.34740610;4.31323160;2022-07-25T07:58:13;26.10;69.10
13600;DHT22;6871;51.34740610;4.31323160;2022-07-25T08:00:45;26.10;69.10
13600;DHT22;6871;51.34740610;4.31323160;2022-07-25T08:03:18;26.10;69.10
13600;DHT22;6871;51.34740610;4.31323160;2022-07-25T08:05:48;26.10;69.20
13600;DHT22;6871;51.34740610;4.31323160;2022-07-25T08:08:18;26.10;69.10
13600;DHT22;6871;51.34740610;4.31323160;2022-07-25T08:10:48;26.10;69.30
13600;DHT22;6871;51.34740610;4.31323160;2022-07-25T08:13:18;26.20;69.50
13600;DHT22;6871;51.34740610;4.31323160;2022-07-25T08:15:49;26.20;69.40
13600;DHT22;6871;51.34740610;4.31323160;2022-07-25T08:18:18;26.10;69.60
13600;DHT22;6871;51.34740610;4.31323160;2022-07-25T08:20:48;26.10;69.70
13600;DHT22;6871;51.34740610;4.31323160;2022-07-25T08:23:18;26.20;69.60
13600;DHT22;6871;51.34740610;4.31323160;2022-07-25T08:25:48;26.10;69.30
13600;DHT22;6871;51.34740610;4.31323160;2022-07-25T08:28:17;26.20;69.40
13600;DHT22;6871;51.34740610;4.31323160;2022-07-25T08:30:46;26.20;69.60
13600;DHT22;6871;51.34740610;4.31323160;2022-07-25T08:33:15;26.20;69.50
13600;DHT22;6871;51.34740610;4.31323160;2022-07-25T08:35:49;26.20;69.20
13600;DHT22;6871;51.34740610;4.31323160;2022-07-25T08:38:21;26.20;69.10
13600;DHT22;6871;51.34740610;4.31323160;2022-07-25T08:40:52;26.20;69.20
13600;DHT22;6871;51.34740610;4.31323160;2022-07-25T08:43:21;26.30;69.00
13600;DHT22;6871;51.34740610;4.31323160;2022-07-25T08:45:52;26.30;69.00
13600;DHT22;6871;51.34740610;4.31323160;2022-07-25T08:48:22;26.30;69.00
13600;DHT22;6871;51.34740610;4.31323160;2022-07-25T08:50:53;26.30;68.80
13600;DHT22;6871;51.34740610;4.31323160;2022-07-25T08:53:24;26.30;68.60
13600;DHT22;6871;51.34740610;4.31323160;2022-07-25T08:55:55;26.30;68.60
13600;DHT22;6871;51.34740610;4.31323160;2022-07-25T08:58:24;26.40;68.60
13600;DHT22;6871;51.34740610;4.31323160;2022-07-25T09:00:53;26.40;68.50
13600;DHT22;6871;51.34740610;4.31323160;2022-07-25T09:03:22;26.40;68.40
13600;DHT22;6871;51.34740610;4.31323160;2022-07-25T09:05:51;26.40;68.30
13600;DHT22;6871;51.34740610;4.31323160;2022-07-25T09:08:21;26.40;68.30
13600;DHT22;6871;51.34740610;4.31323160;2022-07-25T09:10:51;26.50;68.40
13600;DHT22;6871;51.34740610;4.31323160;2022-07-25T09:13:21;26.50;68.20
13600;DHT22;6871;51.34740610;4.31323160;2022-07-25T09:15:51;26.50;68.60
13600;DHT22;6871;51.34740610;4.31323160;2022-07-25T09:18:24;26.50;68.10
13600;DHT22;6871;51.34740610;4.31323160;2022-07-25T09:20:55;26.50;68.10
13600;DHT22;6871;51.34740610;4.31323160;2022-07-25T09:23:30;26.50;68.10
13600;DHT22;6871;51.34740610;4.31323160;2022-07-25T09:26:04;26.50;68.10
13600;DHT22;6871;51.34740610;4.31323160;2022-07-25T09:28:39;26.50;68.10
13600;DHT22;6871;51.34740610;4.31323160;2022-07-25T09:31:09;26.50;68.10
13600;DHT22;6871;51.34740610;4.31323160;2022-07-25T09:33:46;26.50;68.20
13600;DHT22;6871;51.34740610;4.31323160;2022-07-25T09:36:15;26.50;68.10
13600;DHT22;6871;51.34740610;4.31323160;2022-07-25T09:38:52;26.50;68.00
13600;DHT22;6871;51.34740610;4.31323160;2022-07-25T09:41:21;26.50;68.10
13600;DHT22;6871;51.34740610;4.31323160;2022-07-25T09:43:50;26.50;67.80
13600;DHT22;6871;51.34740610;4.31323160;2022-07-25T09:46:27;26.50;67.90
13600;DHT22;6871;51.34740610;4.31323160;2022-07-25T09:48:55;26.50;67.90
13600;DHT22;6871;51.34740610;4.31323160;2022-07-25T09:51:24;26.50;67.80
13600;DHT22;6871;51.34740610;4.31323160;2022-07-25T09:53:53;26.50;67.70
13600;DHT22;6871;51.34740610;4.31323160;2022-07-25T09:56:22;26.40;67.60
13600;DHT22;6871;51.34740610;4.31323160;2022-07-25T09:58:52;26.50;67.60
13600;DHT22;6871;51.34740610;4.31323160;2022-07-25T10:01:24;26.40;67.40
13600;DHT22;6871;51.34740610;4.31323160;2022-07-25T10:03:57;26.40;67.60
13600;DHT22;6871;51.34740610;4.31323160;2022-07-25T10:06:39;26.40;67.50
13600;DHT22;6871;51.34740610;4.31323160;2022-07-25T10:08:58;26.40;67.60
13600;DHT22;6871;51.34740610;4.31323160;2022-07-25T10:11:27;26.40;67.50
13600;DHT22;6871;51.34740610;4.31323160;2022-07-25T10:14:07;26.40;67.40
13600;DHT22;6871;51.34740610;4.31323160;2022-07-25T10:16:28;26.40;67.10
13600;DHT22;6871;51.34740610;4.31323160;2022-07-25T10:18:58;26.40;67.20
13600;DHT22;6871;51.34740610;4.31323160;2022-07-25T10:21:27;26.40;67.40
13600;DHT22;6871;51.34740610;4.31323160;2022-07-25T10:24:05;26.40;67.40
13600;DHT22;6871;51.34740610;4.31323160;2022-07-25T10:26:37;26.40;68.00
13600;DHT22;6871;51.34740610;4.31323160;2022-07-25T10:29:09;26.30;66.90
13600;DHT22;6871;51.34740610;4.31323160;2022-07-25T10:31:41;26.40;66.90
13600;DHT22;6871;51.34740610;4.31323160;2022-07-25T10:34:12;26.40;67.10
13600;DHT22;6871;51.34740610;4.31323160;2022-07-25T10:36:43;26.30;66.70
13600;DHT22;6871;51.34740610;4.31323160;2022-07-25T10:39:16;26.30;66.80
13600;DHT22;6871;51.34740610;4.31323160;2022-07-25T10:41:52;26.30;66.90
13600;DHT22;6871;51.34740610;4.31323160;2022-07-25T10:44:21;26.40;66.70
13600;DHT22;6871;51.34740610;4.31323160;2022-07-25T10:46:50;26.40;66.80
13600;DHT22;6871;51.34740610;4.31323160;2022-07-25T10:49:21;26.30;66.70
13600;DHT22;6871;51.34740610;4.31323160;2022-07-25T10:51:57;26.30;67.10
13600;DHT22;6871;51.34740610;4.31323160;2022-07-25T10:54:31;26.30;67.20
13600;DHT22;6871;51.34740610;4.31323160;2022-07-25T10:57:01;26.30;67.30
13600;DHT22;6871;51.34740610;4.31323160;2022-07-25T10:59:33;26.30;67.10
13600;DHT22;6871;51.34740610;4.31323160;2022-07-25T11:02:04;26.30;67.00
13600;DHT22;6871;51.34740610;4.31323160;2022-07-25T11:04:34;26.30;67.20
13600;DHT22;6871;51.34740610;4.31323160;2022-07-25T11:07:11;26.30;67.40
13600;DHT22;6871;51.34740610;4.31323160;2022-07-25T11:09:41;26.30;67.30
13600;DHT22;6871;51.34740610;4.31323160;2022-07-25T11:12:13;26.30;67.20
13600;DHT22;6871;51.34740610;4.31323160;2022-07-25T11:14:43;26.30;67.10
13600;DHT22;6871;51.34740610;4.31323160;2022-07-25T11:17:15;26.30;67.20
13600;DHT22;6871;51.34740610;4.31323160;2022-07-25T11:19:53;26.30;67.30
13600;DHT22;6871;51.34740610;4.31323160;2022-07-25T11:22:22;26.30;67.30
13600;DHT22;6871;51.34740610;4.31323160;2022-07-25T11:24:51;26.30;66.20
13600;DHT22;6871;51.34740610;4.31323160;2022-07-25T11:27:22;26.30;66.30
13600;DHT22;6871;51.34740610;4.31323160;2022-07-25T11:29:53;26.30;65.80
13600;DHT22;6871;51.34740610;4.31323160;2022-07-25T11:32:22;26.30;66.00
13600;DHT22;6871;51.34740610;4.31323160;2022-07-25T11:34:53;26.30;66.10
13600;DHT22;6871;51.34740610;4.31323160;2022-07-25T11:37:22;26.40;66.10
13600;DHT22;6871;51.34740610;4.31323160;2022-07-25T11:39:52;26.40;65.70
13600;DHT22;6871;51.34740610;4.31323160;2022-07-25T11:42:22;26.30;65.10
13600;DHT22;6871;51.34740610;4.31323160;2022-07-25T11:44:53;26.30;65.00
13600;DHT22;6871;51.34740610;4.31323160;2022-07-25T11:47:28;26.30;65.20
13600;DHT22;6871;51.34740610;4.31323160;2022-07-25T11:49:59;26.30;65.30
13600;DHT22;6871;51.34740610;4.31323160;2022-07-25T11:52:30;26.30;65.60
13600;DHT22;6871;51.34740610;4.31323160;2022-07-25T11:55:01;26.30;65.70
13600;DHT22;6871;51.34740610;4.31323160;2022-07-25T11:57:32;26.30;65.70
13600;DHT22;6871;51.34740610;4.31323160;2022-07-25T12:00:07;26.30;65.70
13600;DHT22;6871;51.34740610;4.31323160;2022-07-25T12:02:35;26.30;65.80
13600;DHT22;6871;51.34740610;4.31323160;2022-07-25T12:05:07;26.30;65.90
13600;DHT22;6871;51.34740610;4.31323160;2022-07-25T12:07:41;26.30;65.60
13600;DHT22;6871;51.34740610;4.31323160;2022-07-25T12:10:14;26.30;66.20
13600;DHT22;6871;51.34740610;4.31323160;2022-07-25T12:12:48;26.30;65.00
13600;DHT22;6871;51.34740610;4.31323160;2022-07-25T12:15:20;26.30;64.90
13600;DHT22;6871;51.34740610;4.31323160;2022-07-25T12:17:50;26.40;65.30
13600;DHT22;6871;51.34740610;4.31323160;2022-07-25T12:20:22;26.40;65.50
13600;DHT22;6871;51.34740610;4.31323160;2022-07-25T12:22:53;26.40;65.50
13600;DHT22;6871;51.34740610;4.31323160;2022-07-25T12:25:23;26.50;65.20
13600;DHT22;6871;51.34740610;4.31323160;2022-07-25T12:27:52;26.50;65.30
13600;DHT22;6871;51.34740610;4.31323160;2022-07-25T12:30:21;26.50;65.10
13600;DHT22;6871;51.34740610;4.31323160;2022-07-25T12:32:50;26.50;65.00
13600;DHT22;6871;51.34740610;4.31323160;2022-07-25T12:35:19;26.60;65.00
13600;DHT22;6871;51.34740610;4.31323160;2022-07-25T12:37:48;26.60;64.30
13600;DHT22;6871;51.34740610;4.31323160;2022-07-25T12:40:19;26.60;64.30
13600;DHT22;6871;51.34740610;4.31323160;2022-07-25T12:42:49;26.60;64.00
13600;DHT22;6871;51.34740610;4.31323160;2022-07-25T12:45:18;26.50;63.80
13600;DHT22;6871;51.34740610;4.31323160;2022-07-25T12:47:47;26.60;63.10
13600;DHT22;6871;51.34740610;4.31323160;2022-07-25T12:50:17;26.60;63.10
13600;DHT22;6871;51.34740610;4.31323160;2022-07-25T12:52:47;26.60;63.50
13600;DHT22;6871;51.34740610;4.31323160;2022-07-25T12:55:17;26.60;63.50
13600;DHT22;6871;51.34740610;4.31323160;2022-07-25T12:57:47;26.60;63.50
13600;DHT22;6871;51.34740610;4.31323160;2022-07-25T13:00:18;26.50;62.60
13600;DHT22;6871;51.34740610;4.31323160;2022-07-25T13:02:47;26.60;62.80
13600;DHT22;6871;51.34740610;4.31323160;2022-07-25T13:05:18;26.50;63.00
13600;DHT22;6871;51.34740610;4.31323160;2022-07-25T13:07:47;26.60;62.70
13600;DHT22;6871;51.34740610;4.31323160;2022-07-25T13:10:17;26.50;62.60
13600;DHT22;6871;51.34740610;4.31323160;2022-07-25T13:12:46;26.50;62.60
13600;DHT22;6871;51.34740610;4.31323160;2022-07-25T13:15:15;26.50;61.90
13600;DHT22;6871;51.34740610;4.31323160;2022-07-25T13:17:47;26.50;61.90
13600;DHT22;6871;51.34740610;4.31323160;2022-07-25T13:20:17;26.50;61.70
13600;DHT22;6871;51.34740610;4.31323160;2022-07-25T13:22:46;26.50;62.00
13600;DHT22;6871;51.34740610;4.31323160;2022-07-25T13:25:15;26.50;62.00
13600;DHT22;6871;51.34740610;4.31323160;2022-07-25T13:27:45;26.50;62.50
13600;DHT22;6871;51.34740610;4.31323160;2022-07-25T13:30:15;26.50;62.10
13600;DHT22;6871;51.34740610;4.31323160;2022-07-25T13:32:44;26.50;62.10
13600;DHT22;6871;51.34740610;4.31323160;2022-07-25T13:35:13;26.60;62.10
13600;DHT22;6871;51.34740610;4.31323160;2022-07-25T13:37:42;26.60;62.10
13600;DHT22;6871;51.34740610;4.31323160;2022-07-25T13:40:11;26.50;61.30
13600;DHT22;6871;51.34740610;4.31323160;2022-07-25T13:42:40;26.60;61.00
13600;DHT22;6871;51.34740610;4.31323160;2022-07-25T13:45:10;26.60;61.50
13600;DHT22;6871;51.34740610;4.31323160;2022-07-25T13:47:39;26.50;61.50
13600;DHT22;6871;51.34740610;4.31323160;2022-07-25T13:50:09;26.60;61.70